Time;durP1;ratioP1;P1;durP2;ratioP2;P2;SDS_P1;SDS_P2;PMS_P1;PMS_P2;Temp;Humidity;BMP_temperature;BMP_pressure;BME280_temperature;BME280_humidity;BME280_pressure;Samples;Min_cycle;Max_cycle;Signal;HPM_P1;HPM_P2
2022/10/09 00:02:02;;;;;;;1.20;1.10;;;;;;;;;;4491534;28;31203;-58
2022/10/09 00:04:12;;;;;;;1.45;1.20;;;;;;;;;;4491697;28;20034;-58
2022/10/09 00:06:26;;;;;;;1.75;1.00;;;;;;;;;;4490781;28;22571;-58
2022/10/09 00:08:42;;;;;;;1.30;1.10;;;;;;;;;;4492447;28;20038;-58
2022/10/09 00:10:52;;;;;;;1.15;1.05;;;;;;;;;;4489807;28;20045;-59
2022/10/09 00:13:03;;;;;;;1.17;1.00;;;;;;;;;;4492779;28;20034;-58
2022/10/09 00:15:13;;;;;;;1.10;1.00;;;;;;;;;;4492391;28;20038;-58
2022/10/09 00:17:24;;;;;;;1.25;1.10;;;;;;;;;;4491311;28;20891;-60
2022/10/09 00:19:34;;;;;;;1.15;1.00;;;;;;;;;;4493916;28;20493;-58
2022/10/09 00:21:45;;;;;;;1.25;1.00;;;;;;;;;;4492379;28;20031;-59
2022/10/09 00:23:57;;;;;;;1.10;1.00;;;;;;;;;;4492551;28;20038;-58
2022/10/09 00:26:08;;;;;;;1.42;1.08;;;;;;;;;;4489813;28;20587;-59
2022/10/09 00:28:19;;;;;;;1.65;1.00;;;;;;;;;;4490644;28;20034;-58
2022/10/09 00:30:30;;;;;;;1.23;1.00;;;;;;;;;;4491631;28;20034;-59
2022/10/09 00:32:41;;;;;;;1.15;1.00;;;;;;;;;;4490122;28;20054;-59
2022/10/09 00:34:51;;;;;;;2.30;0.98;;;;;;;;;;4491845;28;34077;-58
2022/10/09 00:37:01;;;;;;;1.23;1.10;;;;;;;;;;4491538;28;24786;-58
2022/10/09 00:39:12;;;;;;;1.30;1.10;;;;;;;;;;4491880;28;20509;-59
2022/10/09 00:41:25;;;;;;;1.42;1.00;;;;;;;;;;4491688;28;20029;-58
2022/10/09 00:43:47;;;;;;;1.60;1.10;;;;;;;;;;4490523;28;20884;-59
2022/10/09 00:45:58;;;;;;;1.05;1.00;;;;;;;;;;4492112;28;20042;-58
2022/10/09 00:48:09;;;;;;;1.27;1.00;;;;;;;;;;4491484;28;20038;-59
2022/10/09 00:50:39;;;;;;;1.02;0.93;;;;;;;;;;4493403;28;20045;-59
2022/10/09 00:52:53;;;;;;;1.00;0.90;;;;;;;;;;4495920;28;20078;-59
2022/10/09 00:55:04;;;;;;;1.90;1.10;;;;;;;;;;4490617;28;20057;-59
2022/10/09 00:57:15;;;;;;;1.33;1.08;;;;;;;;;;4490918;28;20112;-59
2022/10/09 00:59:26;;;;;;;1.67;1.10;;;;;;;;;;4477280;28;20082;-59
2022/10/09 01:01:38;;;;;;;1.75;1.00;;;;;;;;;;4489791;28;20392;-59
2022/10/09 01:03:48;;;;;;;1.90;1.05;;;;;;;;;;4491756;28;20100;-59
2022/10/09 01:06:09;;;;;;;1.17;1.00;;;;;;;;;;4489726;28;20580;-59
2022/10/09 01:08:27;;;;;;;1.50;1.20;;;;;;;;;;4482875;28;20105;-59
2022/10/09 01:10:51;;;;;;;1.48;1.00;;;;;;;;;;4496114;28;20747;-59
2022/10/09 01:13:21;;;;;;;1.02;0.90;;;;;;;;;;4495038;28;20037;-59
2022/10/09 01:15:38;;;;;;;1.00;0.90;;;;;;;;;;4497604;28;20042;-59
2022/10/09 01:18:07;;;;;;;;;;;;;;;;;;4500321;28;20034;-59
2022/10/09 01:20:26;;;;;;;;;;;;;;;;;;4490842;28;19924;-59
2022/10/09 01:22:48;;;;;;;0.85;0.85;;;;;;;;;;4492818;28;19922;-60
2022/10/09 01:25:10;;;;;;;1.10;0.90;;;;;;;;;;4490957;28;20038;-58
2022/10/09 01:27:22;;;;;;;0.82;0.80;;;;;;;;;;4494281;28;20030;-59
2022/10/09 01:29:35;;;;;;;1.10;1.00;;;;;;;;;;4492683;28;20607;-59
2022/10/09 01:31:48;;;;;;;1.33;1.00;;;;;;;;;;4493122;28;20045;-59
2022/10/09 01:34:00;;;;;;;1.20;1.00;;;;;;;;;;4488467;28;20053;-59
2022/10/09 01:36:10;;;;;;;0.75;0.68;;;;;;;;;;4489864;28;30270;-59
2022/10/09 01:38:22;;;;;;;1.05;0.70;;;;;;;;;;4492956;28;20447;-59
2022/10/09 01:40:33;;;;;;;1.13;0.80;;;;;;;;;;4497615;28;20041;-60
2022/10/09 01:42:45;;;;;;;1.10;1.00;;;;;;;;;;4478911;28;40091;-59
2022/10/09 01:44:56;;;;;;;1.25;0.90;;;;;;;;;;4493434;28;20030;-59
2022/10/09 01:47:09;;;;;;;1.10;1.00;;;;;;;;;;4491695;28;20042;-59
2022/10/09 01:49:39;;;;;;;1.00;0.88;;;;;;;;;;4494302;28;20034;-59
2022/10/09 01:52:19;;;;;;;1.00;0.90;;;;;;;;;;4495192;28;20575;-59
2022/10/09 01:54:58;;;;;;;0.80;0.80;;;;;;;;;;4467117;28;20057;-59
2022/10/09 01:57:11;;;;;;;1.20;0.88;;;;;;;;;;4479565;28;20452;-59
2022/10/09 01:59:23;;;;;;;1.70;0.90;;;;;;;;;;4494164;28;20097;-59
2022/10/09 02:01:35;;;;;;;1.33;1.00;;;;;;;;;;4494969;28;36288;-59
2022/10/09 02:03:48;;;;;;;1.30;1.00;;;;;;;;;;4502172;28;20068;-60
2022/10/09 02:06:00;;;;;;;1.63;0.90;;;;;;;;;;4491780;28;20584;-59
2022/10/09 02:08:12;;;;;;;0.93;0.70;;;;;;;;;;4491845;28;20081;-59
2022/10/09 02:10:23;;;;;;;0.80;0.70;;;;;;;;;;4496433;28;20026;-59
2022/10/09 02:12:37;;;;;;;1.23;0.77;;;;;;;;;;4492447;28;20870;-59
2022/10/09 02:14:48;;;;;;;0.70;0.70;;;;;;;;;;4493664;28;20488;-59
2022/10/09 02:17:05;;;;;;;0.77;0.63;;;;;;;;;;4492899;28;42941;-59
2022/10/09 02:19:37;;;;;;;0.80;0.60;;;;;;;;;;4498039;28;20034;-59
2022/10/09 02:22:13;;;;;;;0.60;0.60;;;;;;;;;;4469261;28;20086;-59
2022/10/09 02:24:24;;;;;;;1.10;0.57;;;;;;;;;;4493509;28;20037;-59
2022/10/09 02:26:36;;;;;;;0.60;0.50;;;;;;;;;;4493348;28;20033;-59
2022/10/09 02:28:46;;;;;;;0.45;0.45;;;;;;;;;;4498368;28;20089;-59
2022/10/09 02:31:04;;;;;;;0.90;0.60;;;;;;;;;;4494920;28;20105;-59
2022/10/09 02:33:15;;;;;;;0.93;0.63;;;;;;;;;;4494070;28;20112;-59
2022/10/09 02:35:25;;;;;;;1.20;0.65;;;;;;;;;;4493475;28;43185;-59
2022/10/09 02:37:35;;;;;;;1.30;0.85;;;;;;;;;;4495477;28;24803;-59
2022/10/09 02:39:46;;;;;;;1.15;0.90;;;;;;;;;;4492195;28;20042;-59
2022/10/09 02:41:56;;;;;;;0.70;0.70;;;;;;;;;;4493433;28;20069;-59
2022/10/09 02:44:07;;;;;;;1.00;0.80;;;;;;;;;;4492622;28;20166;-59
2022/10/09 02:46:17;;;;;;;0.70;0.70;;;;;;;;;;4492551;28;20034;-59
2022/10/09 02:48:27;;;;;;;1.02;0.80;;;;;;;;;;4492908;28;20086;-59
2022/10/09 02:50:38;;;;;;;0.70;0.70;;;;;;;;;;4493392;28;33255;-59
2022/10/09 02:52:48;;;;;;;1.80;0.80;;;;;;;;;;4492208;28;35215;-60
2022/10/09 02:54:59;;;;;;;1.42;0.80;;;;;;;;;;4494011;28;20409;-59
2022/10/09 02:57:09;;;;;;;0.70;0.70;;;;;;;;;;4491754;28;21883;-59
2022/10/09 02:59:19;;;;;;;0.88;0.70;;;;;;;;;;4495763;28;39253;-59
2022/10/09 03:01:30;;;;;;;0.75;0.70;;;;;;;;;;4500258;28;34068;-59
2022/10/09 03:03:40;;;;;;;1.10;0.60;;;;;;;;;;4491125;28;39344;-60
2022/10/09 03:06:08;;;;;;;0.85;0.77;;;;;;;;;;4493921;28;43808;-59
2022/10/09 03:08:18;;;;;;;0.60;0.60;;;;;;;;;;4493226;28;21265;-60
2022/10/09 03:10:29;;;;;;;0.60;0.60;;;;;;;;;;4492292;28;38599;-59
2022/10/09 03:12:39;;;;;;;0.60;0.60;;;;;;;;;;4492009;28;20337;-59
2022/10/09 03:14:50;;;;;;;0.70;0.60;;;;;;;;;;4500358;28;20072;-59
2022/10/09 03:17:00;;;;;;;0.70;0.70;;;;;;;;;;4492314;28;20111;-59
2022/10/09 03:19:10;;;;;;;1.02;0.60;;;;;;;;;;4500326;28;32916;-59
2022/10/09 03:21:23;;;;;;;0.80;0.70;;;;;;;;;;4507227;28;20650;-61
2022/10/09 03:23:34;;;;;;;1.10;0.63;;;;;;;;;;4499478;28;20038;-59
2022/10/09 03:25:54;;;;;;;0.50;0.50;;;;;;;;;;4478841;28;20030;-59
2022/10/09 03:28:04;;;;;;;0.60;0.60;;;;;;;;;;4501514;28;20132;-59
2022/10/09 03:30:15;;;;;;;0.73;0.50;;;;;;;;;;4493954;28;20046;-59
2022/10/09 03:32:25;;;;;;;0.90;0.60;;;;;;;;;;4491270;28;21265;-59
2022/10/09 03:34:35;;;;;;;0.90;0.70;;;;;;;;;;4490850;28;28901;-59
2022/10/09 03:36:46;;;;;;;0.50;0.50;;;;;;;;;;4492160;28;21614;-59
2022/10/09 03:38:56;;;;;;;0.60;0.57;;;;;;;;;;4490898;28;28888;-59
2022/10/09 03:41:07;;;;;;;0.50;0.50;;;;;;;;;;4492750;28;20042;-59
2022/10/09 03:43:17;;;;;;;0.55;0.45;;;;;;;;;;4490764;28;33734;-59
2022/10/09 03:45:28;;;;;;;0.50;0.50;;;;;;;;;;4492448;28;20543;-59
2022/10/09 03:47:38;;;;;;;0.95;0.55;;;;;;;;;;4490354;28;42067;-59
2022/10/09 03:49:48;;;;;;;0.50;0.50;;;;;;;;;;4491091;28;29701;-59
2022/10/09 03:51:59;;;;;;;0.60;0.60;;;;;;;;;;4493485;28;20096;-60
2022/10/09 03:54:09;;;;;;;0.70;0.60;;;;;;;;;;4491149;28;29274;-59
2022/10/09 03:56:19;;;;;;;0.68;0.55;;;;;;;;;;4491252;28;20537;-59
2022/10/09 03:58:30;;;;;;;0.80;0.52;;;;;;;;;;4490125;28;21842;-59
2022/10/09 04:00:42;;;;;;;0.60;0.60;;;;;;;;;;4489854;28;20110;-59
2022/10/09 04:02:53;;;;;;;0.82;0.70;;;;;;;;;;4493176;28;20030;-59
2022/10/09 04:05:03;;;;;;;0.75;0.68;;;;;;;;;;4492092;28;32101;-60
2022/10/09 04:07:14;;;;;;;0.80;0.80;;;;;;;;;;4491717;28;20093;-59
2022/10/09 04:09:24;;;;;;;1.00;0.80;;;;;;;;;;4490997;28;36783;-59
2022/10/09 04:11:35;;;;;;;0.90;0.70;;;;;;;;;;4492380;28;20042;-60
2022/10/09 04:13:45;;;;;;;0.65;0.65;;;;;;;;;;4494504;28;22020;-60
2022/10/09 04:15:55;;;;;;;0.75;0.68;;;;;;;;;;4491053;28;34700;-60
2022/10/09 04:18:06;;;;;;;0.70;0.70;;;;;;;;;;4491043;28;20307;-60
2022/10/09 04:20:18;;;;;;;0.68;0.60;;;;;;;;;;4491150;28;20037;-59
2022/10/09 04:22:28;;;;;;;1.13;0.80;;;;;;;;;;4490870;28;20098;-59
2022/10/09 04:24:39;;;;;;;0.75;0.70;;;;;;;;;;4491171;28;20031;-60
2022/10/09 04:26:49;;;;;;;0.70;0.70;;;;;;;;;;4498351;28;44866;-59
2022/10/09 04:28:59;;;;;;;0.93;0.80;;;;;;;;;;4490368;28;44645;-59
2022/10/09 04:31:10;;;;;;;0.70;0.70;;;;;;;;;;4492184;28;40374;-59
2022/10/09 04:33:20;;;;;;;0.73;0.70;;;;;;;;;;4491999;28;20284;-60
2022/10/09 04:35:31;;;;;;;1.13;0.85;;;;;;;;;;4489534;28;44634;-59
2022/10/09 04:37:41;;;;;;;1.30;0.90;;;;;;;;;;4493399;28;20484;-59
2022/10/09 04:39:51;;;;;;;1.35;0.80;;;;;;;;;;4492228;28;35625;-59
2022/10/09 04:42:02;;;;;;;1.00;0.60;;;;;;;;;;4490749;28;37538;-59
2022/10/09 04:44:12;;;;;;;1.55;0.90;;;;;;;;;;4492131;28;20412;-59
2022/10/09 04:46:23;;;;;;;1.10;0.90;;;;;;;;;;4491307;28;20042;-59
2022/10/09 04:48:38;;;;;;;1.23;0.90;;;;;;;;;;4491130;28;33917;-59
2022/10/09 04:50:48;;;;;;;1.45;0.80;;;;;;;;;;4491834;28;20044;-60
2022/10/09 04:52:58;;;;;;;1.20;0.80;;;;;;;;;;4490454;28;20056;-59
2022/10/09 04:55:09;;;;;;;0.85;0.60;;;;;;;;;;4490604;28;33088;-60
2022/10/09 04:57:19;;;;;;;0.88;0.60;;;;;;;;;;4490178;28;20638;-59
2022/10/09 04:59:30;;;;;;;1.00;0.70;;;;;;;;;;4490263;28;20059;-59
2022/10/09 05:01:40;;;;;;;0.80;0.70;;;;;;;;;;4493310;28;20847;-59
2022/10/09 05:03:51;;;;;;;1.17;0.80;;;;;;;;;;4492134;28;20073;-59
2022/10/09 05:06:03;;;;;;;1.20;0.80;;;;;;;;;;4491606;28;20327;-60
2022/10/09 05:08:14;;;;;;;0.85;0.80;;;;;;;;;;4499814;28;20554;-59
2022/10/09 05:10:24;;;;;;;1.15;0.90;;;;;;;;;;4489251;28;43174;-59
2022/10/09 05:12:34;;;;;;;0.68;0.68;;;;;;;;;;4494658;28;20625;-59
2022/10/09 05:14:45;;;;;;;1.25;0.90;;;;;;;;;;4493970;28;44867;-60
2022/10/09 05:17:01;;;;;;;1.15;0.80;;;;;;;;;;4492797;28;20043;-59
2022/10/09 05:19:11;;;;;;;0.80;0.80;;;;;;;;;;4492506;28;20034;-59
2022/10/09 05:21:23;;;;;;;0.90;0.73;;;;;;;;;;4494013;28;42067;-59
2022/10/09 05:23:34;;;;;;;0.75;0.60;;;;;;;;;;4485413;28;20119;-59
2022/10/09 05:26:06;;;;;;;1.75;0.90;;;;;;;;;;4494840;28;20881;-59
2022/10/09 05:28:16;;;;;;;1.58;0.80;;;;;;;;;;4493519;28;21766;-60
2022/10/09 05:30:26;;;;;;;0.82;0.73;;;;;;;;;;4494640;28;27305;-60
2022/10/09 05:32:37;;;;;;;1.88;0.80;;;;;;;;;;4494093;28;20042;-59
2022/10/09 05:34:47;;;;;;;1.00;0.80;;;;;;;;;;4492452;28;24938;-59
2022/10/09 05:36:58;;;;;;;0.70;0.68;;;;;;;;;;4494072;28;20536;-59
2022/10/09 05:39:08;;;;;;;1.10;0.73;;;;;;;;;;4493705;28;20089;-59
2022/10/09 05:41:19;;;;;;;1.38;0.82;;;;;;;;;;4492420;28;20050;-59
2022/10/09 05:43:32;;;;;;;1.40;0.90;;;;;;;;;;4493075;28;20042;-59
2022/10/09 05:45:42;;;;;;;0.95;0.80;;;;;;;;;;4502025;28;20049;-59
2022/10/09 05:47:52;;;;;;;1.38;0.75;;;;;;;;;;4493009;28;20510;-59
2022/10/09 05:50:03;;;;;;;1.15;0.90;;;;;;;;;;4493346;28;20037;-59
2022/10/09 05:52:13;;;;;;;1.75;0.98;;;;;;;;;;4493528;28;20041;-59
2022/10/09 05:54:24;;;;;;;1.30;0.90;;;;;;;;;;4491904;28;36721;-59
2022/10/09 05:56:37;;;;;;;1.65;0.90;;;;;;;;;;4492348;28;20041;-59
2022/10/09 05:58:53;;;;;;;0.75;0.75;;;;;;;;;;4492222;28;20030;-59
2022/10/09 06:01:03;;;;;;;1.00;0.90;;;;;;;;;;4490951;28;20607;-59
2022/10/09 06:03:13;;;;;;;1.52;0.98;;;;;;;;;;4492071;28;26164;-60
2022/10/09 06:05:24;;;;;;;1.75;1.10;;;;;;;;;;4492497;28;20046;-61
2022/10/09 06:07:34;;;;;;;1.08;0.80;;;;;;;;;;4493647;28;20107;-60
2022/10/09 06:09:45;;;;;;;1.35;0.90;;;;;;;;;;4494089;28;32381;-64
2022/10/09 06:11:55;;;;;;;1.67;1.00;;;;;;;;;;4491946;28;20499;-59
2022/10/09 06:14:07;;;;;;;1.00;0.80;;;;;;;;;;4492581;28;20049;-60
2022/10/09 06:16:18;;;;;;;1.35;0.90;;;;;;;;;;4490750;28;20133;-59
2022/10/09 06:18:28;;;;;;;0.90;0.70;;;;;;;;;;4492621;28;20032;-59
2022/10/09 06:20:39;;;;;;;1.38;0.90;;;;;;;;;;4492510;28;20229;-58
2022/10/09 06:22:50;;;;;;;0.60;0.60;;;;;;;;;;4491298;28;20232;-58
2022/10/09 06:25:00;;;;;;;0.98;0.73;;;;;;;;;;4494115;28;20029;-59
2022/10/09 06:27:12;;;;;;;1.55;1.00;;;;;;;;;;4493840;28;20045;-59
2022/10/09 06:29:23;;;;;;;1.30;1.10;;;;;;;;;;4492277;28;20045;-60
2022/10/09 06:31:33;;;;;;;1.08;0.90;;;;;;;;;;4491688;28;20397;-60
2022/10/09 06:33:45;;;;;;;1.10;0.90;;;;;;;;;;4493036;28;20056;-60
2022/10/09 06:36:01;;;;;;;1.40;0.95;;;;;;;;;;4483860;28;20081;-59
2022/10/09 06:38:11;;;;;;;0.80;0.80;;;;;;;;;;4498341;28;20073;-60
2022/10/09 06:40:22;;;;;;;1.33;0.80;;;;;;;;;;4492145;28;20495;-60
2022/10/09 06:42:32;;;;;;;1.10;1.00;;;;;;;;;;4476212;28;20027;-60
2022/10/09 06:44:44;;;;;;;1.02;0.82;;;;;;;;;;4491485;28;20034;-60
2022/10/09 06:46:54;;;;;;;1.00;0.90;;;;;;;;;;4492084;28;20038;-60
2022/10/09 06:49:06;;;;;;;1.77;1.10;;;;;;;;;;4491625;28;32152;-59
2022/10/09 06:51:19;;;;;;;1.17;0.90;;;;;;;;;;4493011;28;20129;-60
2022/10/09 06:53:33;;;;;;;0.93;0.82;;;;;;;;;;4492517;28;20054;-60
2022/10/09 06:55:52;;;;;;;1.10;0.90;;;;;;;;;;4492832;28;20124;-60
2022/10/09 06:58:02;;;;;;;1.05;0.82;;;;;;;;;;4500626;28;20073;-60
2022/10/09 07:00:13;;;;;;;1.67;1.13;;;;;;;;;;4493049;28;20118;-60
2022/10/09 07:02:23;;;;;;;1.33;0.93;;;;;;;;;;4493064;28;20041;-61
2022/10/09 07:04:34;;;;;;;1.65;0.80;;;;;;;;;;4492365;28;22096;-59
2022/10/09 07:06:46;;;;;;;2.30;1.10;;;;;;;;;;4492980;28;20041;-60
2022/10/09 07:08:58;;;;;;;1.50;1.00;;;;;;;;;;4492473;28;20037;-59
2022/10/09 07:11:24;;;;;;;1.20;0.90;;;;;;;;;;4489781;28;20171;-60
2022/10/09 07:13:34;;;;;;;1.23;1.10;;;;;;;;;;4497536;28;20177;-59
2022/10/09 07:15:44;;;;;;;1.63;0.80;;;;;;;;;;4493291;28;20663;-59
2022/10/09 07:17:55;;;;;;;1.35;1.00;;;;;;;;;;4491735;28;20029;-60
2022/10/09 07:20:05;;;;;;;1.55;1.00;;;;;;;;;;4501214;28;20038;-59
2022/10/09 07:22:16;;;;;;;0.90;0.80;;;;;;;;;;4491177;28;20049;-60
2022/10/09 07:24:26;;;;;;;1.77;1.10;;;;;;;;;;4490977;28;28325;-59
2022/10/09 07:26:39;;;;;;;1.83;1.10;;;;;;;;;;4491626;28;20049;-60
2022/10/09 07:28:50;;;;;;;1.58;1.20;;;;;;;;;;4493118;28;20022;-59
2022/10/09 07:31:04;;;;;;;1.60;0.95;;;;;;;;;;4491099;28;20159;-59
2022/10/09 07:33:14;;;;;;;1.20;1.00;;;;;;;;;;4496131;28;20128;-60
2022/10/09 07:35:25;;;;;;;1.25;0.98;;;;;;;;;;4491887;28;21264;-60
2022/10/09 07:37:35;;;;;;;1.30;0.93;;;;;;;;;;4493056;28;20030;-60
2022/10/09 07:39:45;;;;;;;1.35;0.82;;;;;;;;;;4492888;28;35866;-60
2022/10/09 07:41:56;;;;;;;1.08;0.82;;;;;;;;;;4492169;28;20685;-60
2022/10/09 07:44:06;;;;;;;0.98;0.77;;;;;;;;;;4492803;28;20026;-60
2022/10/09 07:46:19;;;;;;;1.45;0.82;;;;;;;;;;4492192;28;20408;-60
2022/10/09 07:48:30;;;;;;;1.85;0.90;;;;;;;;;;4500417;28;20125;-60
2022/10/09 07:50:40;;;;;;;1.20;0.70;;;;;;;;;;4493509;28;20036;-60
2022/10/09 07:52:50;;;;;;;1.05;0.60;;;;;;;;;;4491579;28;20551;-60
2022/10/09 07:55:01;;;;;;;1.30;0.88;;;;;;;;;;4475364;28;20039;-60
2022/10/09 07:57:11;;;;;;;1.35;0.68;;;;;;;;;;4491882;28;20034;-60
2022/10/09 07:59:22;;;;;;;1.58;0.80;;;;;;;;;;4507023;28;20026;-59
2022/10/09 08:01:34;;;;;;;1.65;0.80;;;;;;;;;;4491846;28;20046;-59
2022/10/09 08:03:44;;;;;;;1.25;0.73;;;;;;;;;;4487887;28;20046;-59
2022/10/09 08:05:55;;;;;;;1.15;0.75;;;;;;;;;;4492238;28;20033;-59
2022/10/09 08:08:05;;;;;;;1.85;0.80;;;;;;;;;;4491905;28;27787;-59
2022/10/09 08:10:16;;;;;;;1.23;0.80;;;;;;;;;;4490590;28;28724;-59
2022/10/09 08:12:26;;;;;;;0.82;0.60;;;;;;;;;;4490798;28;21689;-60
2022/10/09 08:14:36;;;;;;;1.70;0.80;;;;;;;;;;4505281;28;37035;-59
2022/10/09 08:16:47;;;;;;;1.35;0.70;;;;;;;;;;4492949;28;26518;-59
2022/10/09 08:18:59;;;;;;;1.27;0.77;;;;;;;;;;4491056;28;20045;-59
2022/10/09 08:21:12;;;;;;;2.25;0.80;;;;;;;;;;4507288;28;20017;-59
2022/10/09 08:23:22;;;;;;;1.50;0.73;;;;;;;;;;4490906;28;20075;-59
2022/10/09 08:25:35;;;;;;;1.50;0.80;;;;;;;;;;4490389;28;20825;-59
2022/10/09 08:27:45;;;;;;;1.95;0.93;;;;;;;;;;4490455;28;20097;-59
2022/10/09 08:29:55;;;;;;;1.42;0.98;;;;;;;;;;4490522;28;23105;-59
2022/10/09 08:32:06;;;;;;;2.00;0.85;;;;;;;;;;4489866;28;28698;-59
2022/10/09 08:34:16;;;;;;;1.38;0.80;;;;;;;;;;4489285;28;23041;-59
2022/10/09 08:36:27;;;;;;;1.00;0.73;;;;;;;;;;4489112;28;39021;-60
2022/10/09 08:38:38;;;;;;;1.25;0.70;;;;;;;;;;4490065;28;20034;-59
2022/10/09 08:40:55;;;;;;;1.48;0.80;;;;;;;;;;4492890;28;20037;-58
2022/10/09 08:43:06;;;;;;;1.17;0.70;;;;;;;;;;4500376;28;20034;-58
2022/10/09 08:45:17;;;;;;;1.38;0.88;;;;;;;;;;4491373;28;20038;-58
2022/10/09 08:47:37;;;;;;;1.00;0.80;;;;;;;;;;4494815;28;20041;-58
2022/10/09 08:49:55;;;;;;;0.70;0.70;;;;;;;;;;4498625;28;20049;-58
2022/10/09 08:52:27;;;;;;;0.82;0.70;;;;;;;;;;4493736;28;20113;-58
2022/10/09 08:54:38;;;;;;;0.88;0.73;;;;;;;;;;4495658;28;20042;-58
2022/10/09 08:56:49;;;;;;;0.90;0.70;;;;;;;;;;4484898;28;35942;-59
2022/10/09 08:59:00;;;;;;;1.20;0.82;;;;;;;;;;4493239;28;20811;-59
2022/10/09 09:01:29;;;;;;;1.50;0.70;;;;;;;;;;4502583;28;20128;-58
2022/10/09 09:04:06;;;;;;;0.82;0.70;;;;;;;;;;4493842;28;20081;-59
2022/10/09 09:06:34;;;;;;;1.08;0.60;;;;;;;;;;4496159;28;20731;-59
2022/10/09 09:08:51;;;;;;;1.00;0.75;;;;;;;;;;4493680;28;20034;-59
2022/10/09 09:11:27;;;;;;;1.13;0.70;;;;;;;;;;4502839;28;20053;-59
2022/10/09 09:14:09;;;;;;;1.10;0.80;;;;;;;;;;4493448;28;20042;-59
2022/10/09 09:16:38;;;;;;;0.90;0.77;;;;;;;;;;4496696;28;20597;-59
2022/10/09 09:18:52;;;;;;;1.20;0.60;;;;;;;;;;4497098;28;20040;-59
2022/10/09 09:21:40;;;;;;;1.27;0.70;;;;;;;;;;4492786;28;20531;-59
2022/10/09 09:23:51;;;;;;;1.98;0.80;;;;;;;;;;4493975;28;20049;-58
2022/10/09 09:26:02;;;;;;;0.73;0.73;;;;;;;;;;4495172;28;35584;-58
2022/10/09 09:28:33;;;;;;;1.45;0.70;;;;;;;;;;4493386;28;20046;-58
2022/10/09 09:30:48;;;;;;;1.45;0.70;;;;;;;;;;4499561;28;20049;-58
2022/10/09 09:33:10;;;;;;;1.17;0.63;;;;;;;;;;4494582;28;21356;-58
2022/10/09 09:35:27;;;;;;;1.50;0.70;;;;;;;;;;4493957;28;20062;-59
2022/10/09 09:37:38;;;;;;;1.08;0.70;;;;;;;;;;4507068;28;20038;-59
2022/10/09 09:39:48;;;;;;;0.88;0.60;;;;;;;;;;4486184;28;20030;-57
2022/10/09 09:42:17;;;;;;;1.38;0.70;;;;;;;;;;4492194;28;32673;-57
2022/10/09 09:44:29;;;;;;;1.85;0.68;;;;;;;;;;4493868;28;20044;-57
2022/10/09 09:46:40;;;;;;;1.05;0.50;;;;;;;;;;4485133;28;20112;-58
2022/10/09 09:48:52;;;;;;;1.40;0.50;;;;;;;;;;4469464;28;20195;-58
2022/10/09 09:51:05;;;;;;;1.60;0.50;;;;;;;;;;4493368;28;20052;-58
2022/10/09 09:53:33;;;;;;;1.00;0.45;;;;;;;;;;4493251;28;20962;-58
2022/10/09 09:55:44;;;;;;;1.42;0.70;;;;;;;;;;4492920;28;20247;-59
2022/10/09 09:58:05;;;;;;;1.45;0.63;;;;;;;;;;4491968;28;20045;-58
2022/10/09 10:00:18;;;;;;;1.73;0.60;;;;;;;;;;4499767;28;20080;-59
2022/10/09 10:02:28;;;;;;;2.38;0.50;;;;;;;;;;4495294;28;20136;-59
2022/10/09 10:04:59;;;;;;;1.30;0.50;;;;;;;;;;4495877;28;28246;-59
2022/10/09 10:07:09;;;;;;;1.42;0.55;;;;;;;;;;4494632;28;20038;-59
2022/10/09 10:09:20;;;;;;;1.45;0.60;;;;;;;;;;4493485;28;20042;-59
2022/10/09 10:11:33;;;;;;;0.75;0.60;;;;;;;;;;4492122;28;20034;-59
2022/10/09 10:13:48;;;;;;;1.02;0.52;;;;;;;;;;4492958;28;20814;-58
2022/10/09 10:15:58;;;;;;;0.93;0.50;;;;;;;;;;4490247;28;20484;-59
2022/10/09 10:18:14;;;;;;;1.20;0.50;;;;;;;;;;4495551;28;20033;-61
2022/10/09 10:20:26;;;;;;;1.85;0.80;;;;;;;;;;4492334;28;20030;-58
2022/10/09 10:22:37;;;;;;;1.88;0.60;;;;;;;;;;4491277;28;20113;-59
2022/10/09 10:24:48;;;;;;;1.27;0.47;;;;;;;;;;4493573;28;20101;-59
2022/10/09 10:27:08;;;;;;;1.02;0.60;;;;;;;;;;4495202;28;21048;-59
2022/10/09 10:29:22;;;;;;;0.90;0.43;;;;;;;;;;4501297;28;21240;-59
2022/10/09 10:31:32;;;;;;;1.40;0.55;;;;;;;;;;4491933;28;20591;-59
2022/10/09 10:33:44;;;;;;;2.28;0.60;;;;;;;;;;4493521;28;20042;-58
2022/10/09 10:35:55;;;;;;;1.00;0.52;;;;;;;;;;4501416;28;22847;-59
2022/10/09 10:38:16;;;;;;;1.00;0.45;;;;;;;;;;4477290;28;20158;-60
2022/10/09 10:40:32;;;;;;;0.73;0.50;;;;;;;;;;4496280;28;20133;-59
2022/10/09 10:43:01;;;;;;;1.33;0.55;;;;;;;;;;4491447;28;20196;-59
2022/10/09 10:45:18;;;;;;;1.58;0.60;;;;;;;;;;4493430;28;20137;-59
2022/10/09 10:47:33;;;;;;;1.73;0.65;;;;;;;;;;4493410;28;20097;-59
2022/10/09 10:49:44;;;;;;;0.82;0.55;;;;;;;;;;4495135;28;20188;-59
2022/10/09 10:52:07;;;;;;;0.95;0.40;;;;;;;;;;4493540;28;20100;-59
2022/10/09 10:54:39;;;;;;;1.02;0.60;;;;;;;;;;4493912;28;20053;-59
2022/10/09 10:56:55;;;;;;;1.00;0.50;;;;;;;;;;4495488;28;20625;-59
2022/10/09 10:59:43;;;;;;;0.82;0.50;;;;;;;;;;4501136;28;20021;-59
2022/10/09 11:02:05;;;;;;;1.15;0.60;;;;;;;;;;4492821;28;20104;-59
2022/10/09 11:04:25;;;;;;;1.33;0.55;;;;;;;;;;4492176;28;20057;-59
2022/10/09 11:06:47;;;;;;;1.63;0.50;;;;;;;;;;4493133;28;20038;-59
2022/10/09 11:09:18;;;;;;;1.02;0.50;;;;;;;;;;4495685;28;20613;-59
2022/10/09 11:11:36;;;;;;;1.15;0.40;;;;;;;;;;4495825;28;21480;-56
2022/10/09 11:14:18;;;;;;;0.63;0.60;;;;;;;;;;4491917;28;20037;-58
2022/10/09 11:16:28;;;;;;;1.25;0.50;;;;;;;;;;4497332;28;20034;-58
2022/10/09 11:18:49;;;;;;;1.30;0.57;;;;;;;;;;4491942;28;20038;-59
2022/10/09 11:21:18;;;;;;;0.98;0.52;;;;;;;;;;4498612;28;20093;-57
2022/10/09 11:23:31;;;;;;;0.75;0.50;;;;;;;;;;4497603;28;20609;-57
2022/10/09 11:25:59;;;;;;;1.00;0.50;;;;;;;;;;4492825;28;20599;-57
2022/10/09 11:28:12;;;;;;;1.85;0.50;;;;;;;;;;4495168;28;20090;-57
2022/10/09 11:30:25;;;;;;;0.75;0.55;;;;;;;;;;4496246;28;20587;-57
2022/10/09 11:32:45;;;;;;;1.23;0.50;;;;;;;;;;4491455;28;20030;-57
2022/10/09 11:35:06;;;;;;;0.47;0.35;;;;;;;;;;4492093;28;20037;-57
2022/10/09 11:37:24;;;;;;;1.35;0.50;;;;;;;;;;4496478;28;20180;-57
2022/10/09 11:39:36;;;;;;;1.05;0.60;;;;;;;;;;4490553;28;20041;-57
2022/10/09 11:41:47;;;;;;;1.42;0.60;;;;;;;;;;4488789;28;35530;-57
2022/10/09 11:44:00;;;;;;;0.65;0.40;;;;;;;;;;4476040;28;20097;-57
2022/10/09 11:46:23;;;;;;;1.05;0.40;;;;;;;;;;4491722;28;20049;-57
2022/10/09 11:48:44;;;;;;;1.48;0.68;;;;;;;;;;4490532;28;20039;-57
2022/10/09 11:51:00;;;;;;;0.38;0.30;;;;;;;;;;4490628;28;20025;-57
2022/10/09 11:53:14;;;;;;;0.75;0.47;;;;;;;;;;4496714;28;20598;-58
2022/10/09 11:55:27;;;;;;;0.88;0.50;;;;;;;;;;4491090;28;20042;-58
2022/10/09 11:57:37;;;;;;;0.88;0.50;;;;;;;;;;4492268;28;20038;-58
2022/10/09 11:59:48;;;;;;;0.82;0.60;;;;;;;;;;4491206;28;35210;-58
2022/10/09 12:02:12;;;;;;;0.90;0.60;;;;;;;;;;4494005;28;20082;-58
2022/10/09 12:04:33;;;;;;;1.02;0.50;;;;;;;;;;4477621;28;20038;-59
2022/10/09 12:06:52;;;;;;;1.42;0.52;;;;;;;;;;4489791;28;20669;-58
2022/10/09 12:09:06;;;;;;;1.15;0.55;;;;;;;;;;4496149;28;20073;-58
2022/10/09 12:11:17;;;;;;;0.80;0.50;;;;;;;;;;4496867;28;20866;-58
2022/10/09 12:13:48;;;;;;;0.55;0.40;;;;;;;;;;4490442;28;20540;-58
2022/10/09 12:15:59;;;;;;;0.65;0.40;;;;;;;;;;4489457;28;20587;-58
2022/10/09 12:18:39;;;;;;;0.88;0.60;;;;;;;;;;4490823;28;24757;-58
2022/10/09 12:20:52;;;;;;;1.05;0.60;;;;;;;;;;4488530;28;20774;-58
2022/10/09 12:23:08;;;;;;;0.60;0.38;;;;;;;;;;4495614;28;20180;-58
2022/10/09 12:25:31;;;;;;;0.73;0.60;;;;;;;;;;4495678;28;20039;-59
2022/10/09 12:27:42;;;;;;;0.90;0.50;;;;;;;;;;4493306;28;20048;-59
2022/10/09 12:29:55;;;;;;;1.38;0.60;;;;;;;;;;4493255;28;20050;-59
2022/10/09 12:32:12;;;;;;;0.40;0.40;;;;;;;;;;4500545;28;20380;-59
2022/10/09 12:34:32;;;;;;;0.88;0.60;;;;;;;;;;4492643;28;20100;-59
2022/10/09 12:36:43;;;;;;;0.60;0.40;;;;;;;;;;4490917;28;20038;-59
2022/10/09 12:38:53;;;;;;;2.78;0.50;;;;;;;;;;4490820;28;20530;-59
2022/10/09 12:41:06;;;;;;;0.73;0.50;;;;;;;;;;4492689;28;20118;-58
2022/10/09 12:43:18;;;;;;;0.68;0.60;;;;;;;;;;4491377;28;20062;-58
2022/10/09 12:45:29;;;;;;;0.73;0.45;;;;;;;;;;4490554;28;20035;-58
2022/10/09 12:47:39;;;;;;;0.93;0.50;;;;;;;;;;4500173;28;20030;-58
2022/10/09 12:49:55;;;;;;;0.95;0.50;;;;;;;;;;4493627;28;20547;-59
2022/10/09 12:52:14;;;;;;;1.05;0.60;;;;;;;;;;4491012;28;21004;-58
2022/10/09 12:54:26;;;;;;;0.63;0.40;;;;;;;;;;4500374;28;20158;-59
2022/10/09 12:56:37;;;;;;;0.98;0.50;;;;;;;;;;4495184;28;20038;-58
2022/10/09 12:58:48;;;;;;;0.35;0.35;;;;;;;;;;4493122;28;20444;-60
2022/10/09 13:01:00;;;;;;;0.70;0.50;;;;;;;;;;4488900;28;34511;-59
2022/10/09 13:03:33;;;;;;;0.85;0.57;;;;;;;;;;4495634;28;20042;-59
2022/10/09 13:05:44;;;;;;;0.50;0.40;;;;;;;;;;4493434;28;20857;-59
2022/10/09 13:07:54;;;;;;;0.60;0.60;;;;;;;;;;4492586;28;20042;-59
2022/10/09 13:10:17;;;;;;;0.40;0.40;;;;;;;;;;4491438;28;37067;-59
2022/10/09 13:12:28;;;;;;;1.05;0.40;;;;;;;;;;4491265;28;20045;-59
2022/10/09 13:15:06;;;;;;;0.40;0.40;;;;;;;;;;4495691;28;20672;-59
2022/10/09 13:17:38;;;;;;;0.35;0.35;;;;;;;;;;4489059;28;20050;-59
2022/10/09 13:19:53;;;;;;;0.93;0.60;;;;;;;;;;4490908;28;20038;-59
2022/10/09 13:22:18;;;;;;;0.47;0.40;;;;;;;;;;4491427;28;20077;-59
2022/10/09 13:24:29;;;;;;;0.82;0.60;;;;;;;;;;4494831;28;20650;-59
2022/10/09 13:26:41;;;;;;;0.70;0.50;;;;;;;;;;4490032;28;37781;-59